Time;durP1;ratioP1;P1;durP2;ratioP2;P2;SDS_P1;SDS_P2;PMS_P1;PMS_P2;Temp;Humidity;BMP_temperature;BMP_pressure;BME280_temperature;BME280_humidity;BME280_pressure;Samples;Min_cycle;Max_cycle;Signal;HPM_P1;HPM_P2
2021/03/15 00:01:50;;;;;;;35.95;20.55;;;12.10;99.90;;;;;;4973341;28;20030;-76
2021/03/15 00:04:15;;;;;;;36.63;21.88;;;11.70;99.90;;;;;;4973811;28;20035;-75
2021/03/15 00:06:41;;;;;;;28.00;19.27;;;11.90;99.90;;;;;;4973051;28;20034;-75
2021/03/15 00:09:07;;;;;;;29.77;18.80;;;12.10;99.90;;;;;;4973227;28;20506;-75
2021/03/15 00:11:33;;;;;;;29.90;20.15;;;12.10;99.90;;;;;;4973127;28;20027;-75
2021/03/15 00:13:59;;;;;;;30.40;18.92;;;12.20;99.90;;;;;;4973265;28;20025;-76
2021/03/15 00:16:24;;;;;;;28.80;20.02;;;12.10;99.90;;;;;;4973005;28;20026;-75
2021/03/15 00:18:50;;;;;;;31.75;19.23;;;12.10;99.90;;;;;;4973370;28;20106;-75
2021/03/15 00:21:16;;;;;;;35.65;21.33;;;12.00;99.90;;;;;;4973131;28;20508;-75
2021/03/15 00:23:42;;;;;;;31.83;21.08;;;11.20;99.90;;;;;;4972947;28;20070;-77
2021/03/15 00:26:08;;;;;;;34.33;22.52;;;10.80;99.90;;;;;;4972753;28;20034;-74
2021/03/15 00:28:33;;;;;;;31.83;21.58;;;10.80;99.90;;;;;;4955426;28;20431;-75
2021/03/15 00:30:59;;;;;;;33.38;21.33;;;11.00;99.90;;;;;;4972955;28;20027;-75
2021/03/15 00:33:25;;;;;;;35.17;21.92;;;11.30;99.90;;;;;;4972466;28;20043;-75
2021/03/15 00:35:51;;;;;;;31.10;20.65;;;11.60;99.90;;;;;;4973192;28;20102;-75
2021/03/15 00:38:17;;;;;;;31.05;20.17;;;11.60;99.90;;;;;;4971420;28;20027;-75
2021/03/15 00:40:43;;;;;;;34.20;20.10;;;11.50;99.90;;;;;;4953695;29;20031;-74
2021/03/15 00:43:09;;;;;;;30.85;18.80;;;11.10;99.90;;;;;;4953059;29;20038;-74
2021/03/15 00:45:34;;;;;;;30.58;19.48;;;10.60;99.90;;;;;;4953339;29;20047;-74
2021/03/15 00:48:01;;;;;;;32.53;19.85;;;10.40;99.90;;;;;;4952866;28;20039;-75
2021/03/15 00:50:40;;;;;;;26.85;18.55;;;10.40;99.90;;;;;;4952870;29;20023;-75
2021/03/15 00:53:06;;;;;;;30.73;19.60;;;10.90;99.90;;;;;;4953342;29;20059;-74
2021/03/15 00:55:32;;;;;;;32.50;19.83;;;11.20;99.90;;;;;;4953263;29;20063;-75
2021/03/15 00:57:58;;;;;;;35.40;19.05;;;11.50;99.90;;;;;;4953337;29;20079;-75
2021/03/15 01:00:28;;;;;;;32.28;20.77;;;11.60;99.90;;;;;;4952099;28;20484;-77
2021/03/15 01:02:55;;;;;;;32.47;20.50;;;11.60;99.90;;;;;;4952963;29;20083;-76
2021/03/15 01:05:29;;;;;;;30.30;19.85;;;11.60;99.90;;;;;;4953364;29;20054;-75
2021/03/15 01:07:55;;;;;;;34.25;21.27;;;11.30;99.90;;;;;;4953025;29;20035;-73
2021/03/15 01:10:25;;;;;;;30.40;20.65;;;10.30;99.90;;;;;;4953193;29;20039;-74
2021/03/15 01:12:50;;;;;;;27.93;18.77;;;10.40;99.90;;;;;;4953252;29;20028;-77
2021/03/15 01:15:19;;;;;;;30.08;20.25;;;10.60;99.90;;;;;;4953137;29;20362;-74
2021/03/15 01:17:45;;;;;;;35.97;21.27;;;10.80;99.90;;;;;;4953130;29;20381;-76
2021/03/15 01:20:11;;;;;;;31.40;19.20;;;10.70;99.90;;;;;;4953036;29;20164;-75
2021/03/15 01:22:37;;;;;;;33.92;21.02;;;10.30;99.90;;;;;;4951728;29;20098;-75
2021/03/15 01:25:05;;;;;;;31.02;19.67;;;10.30;99.90;;;;;;4951937;29;20027;-75
2021/03/15 01:27:30;;;;;;;29.23;19.33;;;10.20;99.90;;;;;;4951793;29;20051;-74
2021/03/15 01:29:56;;;;;;;32.38;20.23;;;10.60;99.90;;;;;;4953043;29;20389;-74
2021/03/15 01:32:22;;;;;;;28.27;18.90;;;10.60;99.90;;;;;;4952654;29;20074;-75
2021/03/15 01:34:48;;;;;;;29.20;19.63;;;10.40;99.90;;;;;;4952976;29;20104;-74
2021/03/15 01:37:15;;;;;;;28.23;19.02;;;10.40;99.90;;;;;;4953033;29;20035;-75
2021/03/15 01:39:40;;;;;;;26.55;17.88;;;10.80;99.90;;;;;;4963628;28;20030;-75
2021/03/15 01:42:07;;;;;;;24.05;17.25;;;11.10;99.90;;;;;;4972184;28;20034;-74
2021/03/15 01:44:33;;;;;;;27.15;18.60;;;11.20;99.90;;;;;;4971980;28;20133;-74
2021/03/15 01:46:59;;;;;;;26.83;17.65;;;11.10;99.90;;;;;;4971935;28;20144;-74
2021/03/15 01:49:25;;;;;;;27.48;17.40;;;11.20;99.90;;;;;;4972335;28;20043;-74
2021/03/15 01:51:51;;;;;;;29.45;17.55;;;11.20;99.90;;;;;;4972327;28;20114;-75
2021/03/15 01:54:19;;;;;;;24.05;16.33;;;11.30;99.90;;;;;;4971810;28;20085;-74
2021/03/15 01:56:46;;;;;;;22.35;15.68;;;11.30;99.90;;;;;;4972194;28;20034;-74
2021/03/15 01:59:15;;;;;;;26.45;16.73;;;11.40;99.90;;;;;;4971707;28;20026;-74
2021/03/15 02:01:46;;;;;;;27.70;16.98;;;11.20;99.90;;;;;;4974942;28;20027;-74
2021/03/15 02:04:17;;;;;;;24.38;17.33;;;11.10;99.90;;;;;;4975794;28;20125;-74
2021/03/15 02:06:46;;;;;;;26.30;17.23;;;10.90;99.90;;;;;;4975740;28;20029;-76
2021/03/15 02:09:13;;;;;;;25.08;16.75;;;10.90;99.90;;;;;;4975879;28;20030;-75
2021/03/15 02:12:00;;;;;;;25.58;17.70;;;10.90;99.90;;;;;;4975677;28;20023;-76
2021/03/15 02:14:35;;;;;;;28.77;18.42;;;10.90;99.90;;;;;;4975326;28;20041;-75
2021/03/15 02:17:24;;;;;;;25.85;16.52;;;10.50;99.90;;;;;;4975053;28;20015;-74
2021/03/15 02:20:24;;;;;;;27.60;17.50;;;10.00;99.90;;;;;;4975063;28;20062;-74
2021/03/15 02:23:01;;;;;;;25.20;17.15;;;10.40;99.90;;;;;;4974758;28;20113;-74
2021/03/15 02:25:51;;;;;;;29.70;17.13;;;10.70;99.90;;;;;;4974114;28;20027;-76
2021/03/15 02:28:16;;;;;;;23.10;16.42;;;10.80;99.90;;;;;;4975313;28;20031;-74
2021/03/15 02:30:42;;;;;;;25.02;16.35;;;10.70;99.90;;;;;;4974811;28;20033;-75
2021/03/15 02:33:52;;;;;;;24.85;16.77;;;10.70;99.90;;;;;;4974913;28;20379;-76
2021/03/15 02:36:20;;;;;;;28.92;16.52;;;10.70;99.90;;;;;;4950071;28;20035;-76
2021/03/15 02:38:47;;;;;;;30.70;17.80;;;10.70;99.90;;;;;;4972516;28;20035;-74
2021/03/15 02:41:16;;;;;;;29.98;17.65;;;10.80;99.90;;;;;;4955722;29;20019;-74
2021/03/15 02:43:46;;;;;;;29.50;16.92;;;10.80;99.90;;;;;;4955108;29;20038;-75
2021/03/15 02:46:17;;;;;;;27.95;17.80;;;10.90;99.90;;;;;;4955414;29;20027;-73
2021/03/15 02:48:46;;;;;;;27.08;17.90;;;10.90;99.90;;;;;;4955303;29;20051;-75
2021/03/15 02:51:13;;;;;;;26.30;16.92;;;10.90;99.90;;;;;;4955614;29;20031;-75
2021/03/15 02:53:43;;;;;;;28.23;17.98;;;10.50;99.90;;;;;;4955121;29;20027;-75
2021/03/15 02:56:16;;;;;;;26.17;16.80;;;10.20;99.90;;;;;;4955511;29;20493;-75
2021/03/15 02:58:43;;;;;;;25.17;17.30;;;10.50;99.90;;;;;;4955174;28;20102;-75
2021/03/15 03:01:10;;;;;;;25.38;16.85;;;10.70;99.90;;;;;;4953977;29;20023;-76
2021/03/15 03:03:38;;;;;;;27.48;17.42;;;10.80;99.90;;;;;;4955104;29;20452;-75
2021/03/15 03:06:05;;;;;;;29.70;16.95;;;10.90;99.90;;;;;;4955026;29;20023;-74
2021/03/15 03:08:34;;;;;;;29.13;17.88;;;10.80;99.90;;;;;;4955116;29;20031;-74
2021/03/15 03:11:01;;;;;;;23.52;17.08;;;10.80;99.90;;;;;;4955276;29;20019;-76
2021/03/15 03:13:27;;;;;;;27.83;16.95;;;10.90;99.90;;;;;;4954652;28;20389;-75
2021/03/15 03:15:56;;;;;;;26.13;18.60;;;10.90;99.90;;;;;;4955118;29;20024;-75
2021/03/15 03:18:24;;;;;;;27.20;17.23;;;10.80;99.90;;;;;;4955403;29;20099;-75
2021/03/15 03:21:46;;;;;;;25.92;17.48;;;10.90;99.90;;;;;;4955396;29;20026;-76
2021/03/15 03:24:13;;;;;;;23.58;16.52;;;10.90;99.90;;;;;;4955149;29;20417;-75
2021/03/15 03:26:41;;;;;;;28.27;16.77;;;10.90;99.90;;;;;;4955507;29;20034;-76
2021/03/15 03:29:08;;;;;;;25.48;17.33;;;10.90;99.90;;;;;;4954880;29;20031;-75
2021/03/15 03:31:38;;;;;;;32.58;19.10;;;10.90;99.90;;;;;;4954635;29;20023;-75
2021/03/15 03:34:04;;;;;;;28.55;19.17;;;10.90;99.90;;;;;;4954976;29;20053;-75
2021/03/15 03:36:30;;;;;;;29.73;19.13;;;10.90;99.90;;;;;;4954398;29;20035;-75
2021/03/15 03:38:57;;;;;;;32.00;18.83;;;10.80;99.90;;;;;;4957048;28;20055;-75
2021/03/15 03:41:23;;;;;;;26.50;17.75;;;10.80;99.90;;;;;;4972550;28;20043;-74
2021/03/15 03:43:48;;;;;;;29.15;18.85;;;10.80;99.90;;;;;;4973370;28;20066;-74
2021/03/15 03:46:15;;;;;;;29.70;19.05;;;10.60;99.90;;;;;;4973460;28;20488;-74
2021/03/15 03:48:41;;;;;;;29.25;19.40;;;10.60;99.90;;;;;;4973491;28;20429;-74
2021/03/15 03:51:08;;;;;;;29.65;19.20;;;10.70;99.90;;;;;;4973205;28;20029;-74
2021/03/15 03:53:42;;;;;;;27.27;19.52;;;10.70;99.90;;;;;;4973575;28;20037;-73
2021/03/15 03:56:39;;;;;;;31.27;19.48;;;10.50;99.90;;;;;;4973500;28;20066;-75
2021/03/15 03:59:07;;;;;;;29.10;19.13;;;10.60;99.90;;;;;;4940192;28;20441;-76
2021/03/15 04:01:38;;;;;;;29.83;18.58;;;10.60;99.90;;;;;;4973548;28;20035;-75
2021/03/15 04:04:06;;;;;;;32.05;19.08;;;10.30;99.90;;;;;;4974128;28;20409;-76
2021/03/15 04:06:35;;;;;;;27.90;19.25;;;10.00;99.90;;;;;;4973643;28;20023;-75
2021/03/15 04:09:03;;;;;;;27.42;18.65;;;10.00;99.90;;;;;;4974029;28;20412;-76
2021/03/15 04:11:33;;;;;;;29.45;18.98;;;10.20;99.90;;;;;;4973714;28;20027;-76
2021/03/15 04:13:59;;;;;;;30.27;19.08;;;10.40;99.90;;;;;;4973829;28;20030;-76
2021/03/15 04:16:29;;;;;;;29.42;18.70;;;9.50;99.90;;;;;;4973089;28;20073;-76
2021/03/15 04:18:58;;;;;;;28.13;18.20;;;9.50;99.90;;;;;;4973775;28;20380;-77
2021/03/15 04:21:26;;;;;;;31.05;18.27;;;9.90;99.90;;;;;;4974097;28;20039;-77
2021/03/15 04:23:56;;;;;;;28.70;17.25;;;10.20;99.90;;;;;;4973201;28;20027;-76
2021/03/15 04:26:22;;;;;;;29.73;17.77;;;10.00;99.90;;;;;;4973140;28;20027;-75
2021/03/15 04:28:50;;;;;;;26.80;17.80;;;10.00;99.90;;;;;;4973243;28;20034;-75
2021/03/15 04:31:17;;;;;;;24.73;16.38;;;9.90;99.90;;;;;;4972653;28;20045;-75
2021/03/15 04:33:44;;;;;;;26.00;15.60;;;10.00;99.90;;;;;;4973197;28;20037;-74
2021/03/15 04:36:13;;;;;;;27.83;15.57;;;9.90;99.90;;;;;;4972904;28;20027;-75
2021/03/15 04:38:40;;;;;;;27.45;17.33;;;9.70;99.90;;;;;;4972968;28;20027;-75
2021/03/15 04:41:06;;;;;;;25.00;15.98;;;9.80;99.90;;;;;;4953353;28;20477;-75
2021/03/15 04:43:33;;;;;;;29.05;16.95;;;10.00;99.90;;;;;;4952269;29;20404;-74
2021/03/15 04:45:59;;;;;;;26.33;16.75;;;10.20;99.90;;;;;;4953113;29;20470;-74
2021/03/15 04:48:27;;;;;;;26.10;17.75;;;10.30;99.90;;;;;;4953612;29;20043;-75
2021/03/15 04:50:57;;;;;;;27.83;16.98;;;10.40;99.90;;;;;;4952484;29;20035;-74
2021/03/15 04:53:23;;;;;;;28.10;16.35;;;10.40;99.90;;;;;;4953864;29;20031;-75
2021/03/15 04:55:49;;;;;;;29.70;17.02;;;10.40;99.90;;;;;;4954227;29;20043;-74
2021/03/15 04:58:16;;;;;;;27.95;16.70;;;10.40;99.90;;;;;;4953559;28;20055;-75
2021/03/15 05:00:46;;;;;;;24.33;15.77;;;10.60;99.90;;;;;;4953111;29;20576;-74
2021/03/15 05:03:14;;;;;;;26.52;15.82;;;10.70;99.90;;;;;;4952887;29;20044;-74
2021/03/15 05:05:42;;;;;;;24.23;15.73;;;10.70;99.90;;;;;;4953129;29;20376;-75
2021/03/15 05:08:11;;;;;;;27.50;15.50;;;10.70;99.90;;;;;;4953125;29;20051;-73
2021/03/15 05:10:39;;;;;;;26.88;16.88;;;10.70;99.90;;;;;;4953013;29;20031;-76
2021/03/15 05:13:06;;;;;;;24.75;16.63;;;10.50;99.90;;;;;;4952985;29;20033;-74
2021/03/15 05:15:34;;;;;;;27.38;17.50;;;10.40;99.90;;;;;;4951690;29;20572;-74
2021/03/15 05:18:01;;;;;;;25.20;15.70;;;10.40;99.90;;;;;;4953351;29;20055;-74
2021/03/15 05:20:27;;;;;;;23.83;16.83;;;10.50;99.90;;;;;;4953000;29;20035;-75
2021/03/15 05:22:54;;;;;;;32.10;18.05;;;10.50;99.90;;;;;;4952964;29;20046;-76
2021/03/15 05:25:21;;;;;;;25.80;18.08;;;10.60;99.90;;;;;;4952974;29;20500;-74
2021/03/15 05:27:50;;;;;;;30.50;19.02;;;10.60;99.90;;;;;;4953066;29;20366;-76
2021/03/15 05:30:18;;;;;;;29.77;18.42;;;10.60;99.90;;;;;;4953117;29;20053;-74
2021/03/15 05:32:50;;;;;;;27.83;18.23;;;10.60;99.90;;;;;;4953183;29;20055;-75
2021/03/15 05:35:17;;;;;;;28.98;18.17;;;10.70;99.90;;;;;;4954769;28;20456;-75
2021/03/15 05:37:45;;;;;;;28.42;18.90;;;10.70;99.90;;;;;;4957615;29;20106;-75
2021/03/15 05:40:14;;;;;;;29.98;19.23;;;10.70;99.90;;;;;;4965224;28;20027;-75
2021/03/15 05:43:15;;;;;;;31.15;18.95;;;10.40;99.90;;;;;;4976420;28;20035;-75
2021/03/15 05:46:05;;;;;;;29.83;18.45;;;9.60;99.90;;;;;;4974844;28;20053;-75
2021/03/15 05:48:49;;;;;;;27.95;18.80;;;9.40;99.90;;;;;;4976383;28;20039;-75
2021/03/15 05:51:52;;;;;;;31.98;17.65;;;9.30;99.90;;;;;;4976007;28;20023;-76
2021/03/15 05:54:39;;;;;;;29.88;17.58;;;9.30;99.90;;;;;;4975578;28;20059;-75
2021/03/15 05:57:30;;;;;;;28.85;16.98;;;9.60;99.90;;;;;;4974639;28;20019;-75
2021/03/15 06:00:43;;;;;;;24.98;16.70;;;9.90;99.90;;;;;;4975564;28;20105;-75
2021/03/15 06:03:50;;;;;;;27.75;16.77;;;10.00;99.90;;;;;;4966653;28;20477;-74
2021/03/15 06:06:19;;;;;;;28.63;15.77;;;10.40;99.90;;;;;;4878252;29;20071;-74
2021/03/15 06:08:47;;;;;;;28.23;17.20;;;9.90;99.90;;;;;;4878123;29;20048;-73
2021/03/15 06:11:18;;;;;;;23.80;15.10;;;9.70;99.90;;;;;;4910417;28;20499;-74
2021/03/15 06:13:45;;;;;;;31.70;18.40;;;9.90;99.90;;;;;;4974172;28;20396;-75
2021/03/15 06:16:12;;;;;;;37.72;23.00;;;10.40;99.90;;;;;;4975454;28;20019;-75
2021/03/15 06:18:40;;;;;;;108.90;58.78;;;11.00;99.90;;;;;;4975762;28;20030;-75
2021/03/15 06:21:09;;;;;;;31.63;22.25;;;11.40;99.90;;;;;;4974039;28;20023;-74
2021/03/15 06:23:37;;;;;;;24.90;16.27;;;11.20;99.90;;;;;;4970723;28;20045;-74
2021/03/15 06:26:03;;;;;;;28.80;15.88;;;11.10;99.90;;;;;;4975191;28;20481;-74
2021/03/15 06:28:29;;;;;;;23.65;15.50;;;10.90;99.90;;;;;;4957717;28;20038;-75
2021/03/15 06:30:55;;;;;;;23.95;14.70;;;10.60;99.90;;;;;;4960407;28;20034;-74
2021/03/15 06:33:22;;;;;;;24.00;16.00;;;10.20;99.90;;;;;;4954024;29;20068;-74
2021/03/15 06:35:55;;;;;;;27.35;15.02;;;10.00;99.90;;;;;;4953810;29;20027;-74
2021/03/15 06:38:23;;;;;;;23.23;14.63;;;9.80;99.90;;;;;;4952188;28;20031;-74
2021/03/15 06:40:49;;;;;;;23.65;14.48;;;9.80;99.90;;;;;;4955525;28;20440;-74
2021/03/15 06:43:19;;;;;;;24.50;15.15;;;9.80;99.90;;;;;;4952777;29;20031;-79
2021/03/15 06:45:53;;;;;;;25.30;15.05;;;9.70;99.90;;;;;;4953084;29;20047;-76
2021/03/15 06:48:20;;;;;;;21.55;14.65;;;9.80;99.90;;;;;;4954250;29;20031;-76
2021/03/15 06:50:46;;;;;;;30.52;18.55;;;9.80;99.90;;;;;;4955085;28;20027;-75
2021/03/15 06:53:12;;;;;;;28.70;18.35;;;10.00;99.90;;;;;;4964347;28;20082;-75
2021/03/15 06:55:41;;;;;;;26.33;15.18;;;10.00;99.90;;;;;;4957011;28;20452;-75
2021/03/15 06:58:19;;;;;;;55.67;33.67;;;10.30;99.90;;;;;;4955704;28;20038;-75
2021/03/15 07:00:46;;;;;;;34.80;20.58;;;11.20;99.90;;;;;;4968900;28;20023;-74
2021/03/15 07:03:21;;;;;;;27.08;15.95;;;11.20;99.90;;;;;;4963367;28;20047;-75
2021/03/15 07:05:57;;;;;;;20.83;13.32;;;11.10;99.90;;;;;;4954541;29;20086;-74
2021/03/15 07:08:24;;;;;;;40.38;23.08;;;11.20;99.90;;;;;;4954783;29;20030;-75
2021/03/15 07:10:50;;;;;;;94.63;57.20;;;11.40;99.90;;;;;;4954711;29;20413;-73
2021/03/15 07:13:20;;;;;;;34.72;20.38;;;11.60;99.90;;;;;;4952324;28;20031;-74
2021/03/15 07:15:49;;;;;;;24.08;15.68;;;11.40;99.90;;;;;;4966934;28;20030;-74
2021/03/15 07:18:19;;;;;;;24.48;16.83;;;11.20;99.90;;;;;;4956416;28;20173;-75
2021/03/15 07:20:48;;;;;;;;;;;11.10;99.90;;;;;;4973623;28;20539;-74
2021/03/15 07:23:15;;;;;;;26.85;16.02;;;11.00;99.90;;;;;;4973515;28;19921;-74
2021/03/15 07:25:42;;;;;;;26.75;17.38;;;10.80;99.90;;;;;;4973588;28;20073;-74
2021/03/15 07:28:08;;;;;;;25.75;16.38;;;10.60;99.90;;;;;;4955223;28;20071;-76
2021/03/15 07:30:41;;;;;;;24.73;16.30;;;10.50;99.90;;;;;;4973237;28;20030;-75
2021/03/15 07:33:24;;;;;;;25.10;16.33;;;10.40;99.90;;;;;;4973467;28;20035;-73
2021/03/15 07:35:50;;;;;;;31.20;16.35;;;10.20;99.90;;;;;;4973114;28;20093;-74
2021/03/15 07:38:16;;;;;;;20.73;14.48;;;10.40;99.90;;;;;;4973208;28;20425;-74
2021/03/15 07:40:45;;;;;;;21.67;14.40;;;9.90;99.90;;;;;;4962301;28;20434;-74
2021/03/15 07:43:26;;;;;;;23.42;15.88;;;9.80;99.90;;;;;;4955548;28;20085;-74
2021/03/15 07:45:52;;;;;;;17.20;11.60;;;9.80;99.90;;;;;;4956160;28;20118;-74
2021/03/15 07:48:23;;;;;;;14.98;9.65;;;9.60;99.90;;;;;;4954007;29;20147;-75
2021/03/15 07:50:58;;;;;;;11.60;7.72;;;9.80;99.90;;;;;;4961661;28;20380;-74
2021/03/15 07:53:42;;;;;;;11.55;8.05;;;9.80;99.90;;;;;;4972117;28;20105;-74
2021/03/15 07:56:10;;;;;;;16.55;10.50;;;9.90;99.90;;;;;;4970854;28;20456;-75
2021/03/15 07:58:39;;;;;;;13.90;9.02;;;9.90;99.90;;;;;;4953206;28;20039;-75
2021/03/15 08:01:07;;;;;;;13.30;9.25;;;9.80;99.90;;;;;;4953705;29;20026;-74
2021/03/15 08:03:39;;;;;;;18.90;10.13;;;9.80;99.90;;;;;;4953682;29;20067;-75
2021/03/15 08:06:06;;;;;;;12.70;9.20;;;10.00;99.90;;;;;;4953797;29;20027;-76
2021/03/15 08:08:32;;;;;;;14.65;9.88;;;10.10;99.90;;;;;;4953431;29;20034;-74
2021/03/15 08:10:58;;;;;;;15.43;9.65;;;10.30;99.90;;;;;;4953189;28;20023;-75
2021/03/15 08:13:27;;;;;;;15.85;9.43;;;10.00;99.90;;;;;;4953534;29;20114;-74
2021/03/15 08:15:58;;;;;;;15.00;9.82;;;10.30;99.90;;;;;;4935769;29;20106;-75
2021/03/15 08:18:26;;;;;;;14.02;9.05;;;10.10;99.90;;;;;;4935711;29;20090;-75
2021/03/15 08:21:09;;;;;;;15.00;8.95;;;9.90;99.90;;;;;;4951640;28;20022;-75
2021/03/15 08:23:56;;;;;;;10.60;7.90;;;10.20;99.90;;;;;;4962225;28;20031;-74
2021/03/15 08:26:23;;;;;;;9.77;7.38;;;9.90;99.90;;;;;;4961469;28;20106;-75
2021/03/15 08:28:53;;;;;;;10.40;7.63;;;9.80;99.90;;;;;;4971876;28;20046;-75
2021/03/15 08:31:43;;;;;;;11.80;6.78;;;9.80;99.90;;;;;;4955345;28;20102;-76
2021/03/15 08:34:13;;;;;;;10.02;6.43;;;9.90;99.90;;;;;;4972758;28;20080;-76
2021/03/15 08:36:43;;;;;;;9.57;7.05;;;9.80;99.90;;;;;;4972633;28;20362;-76
2021/03/15 08:39:27;;;;;;;10.13;6.65;;;10.00;99.90;;;;;;4966817;28;20464;-77
2021/03/15 08:42:11;;;;;;;9.88;6.70;;;10.20;99.90;;;;;;4960805;28;20055;-76
2021/03/15 08:44:42;;;;;;;9.82;6.63;;;10.50;99.90;;;;;;4971950;28;20086;-76
2021/03/15 08:47:09;;;;;;;9.25;6.70;;;10.80;99.90;;;;;;4971954;28;20058;-74
2021/03/15 08:49:38;;;;;;;10.85;6.40;;;10.90;99.90;;;;;;4972592;28;20086;-75
2021/03/15 08:52:04;;;;;;;11.07;6.28;;;10.80;99.90;;;;;;4961522;28;20019;-74
2021/03/15 08:54:56;;;;;;;9.02;6.45;;;10.90;99.90;;;;;;4959548;28;20031;-75
2021/03/15 08:57:28;;;;;;;7.43;5.38;;;11.00;99.90;;;;;;4956018;28;20165;-75
2021/03/15 08:59:55;;;;;;;8.45;5.95;;;11.10;99.90;;;;;;4961866;28;20043;-75
2021/03/15 09:02:39;;;;;;;8.73;5.28;;;11.10;99.90;;;;;;4960706;28;20059;-75
2021/03/15 09:05:23;;;;;;;9.43;5.55;;;11.20;99.90;;;;;;4961681;28;20040;-75
2021/03/15 09:07:50;;;;;;;9.40;5.93;;;11.30;99.90;;;;;;4962120;28;20414;-75
2021/03/15 09:10:30;;;;;;;9.32;5.95;;;11.50;99.90;;;;;;4962465;28;20108;-75
2021/03/15 09:13:23;;;;;;;8.07;5.72;;;11.60;99.90;;;;;;4966380;28;20444;-76
2021/03/15 09:15:57;;;;;;;7.68;5.18;;;11.70;99.90;;;;;;4966097;28;20023;-75
2021/03/15 09:18:38;;;;;;;7.45;4.28;;;11.80;99.90;;;;;;4948165;28;20031;-75
2021/03/15 09:21:25;;;;;;;6.22;4.10;;;11.70;99.90;;;;;;4963143;28;20078;-76
2021/03/15 09:23:52;;;;;;;5.82;3.40;;;11.80;99.90;;;;;;4950330;28;20042;-75
2021/03/15 09:26:43;;;;;;;6.50;3.50;;;11.80;99.90;;;;;;4973833;28;20470;-75
2021/03/15 09:29:09;;;;;;;4.50;3.28;;;11.90;99.90;;;;;;4958868;29;20508;-75
2021/03/15 09:31:34;;;;;;;9.77;3.80;;;12.00;99.90;;;;;;4958907;28;20031;-75
2021/03/15 09:34:06;;;;;;;5.47;3.72;;;12.20;99.90;;;;;;4959189;29;20035;-76
2021/03/15 09:36:33;;;;;;;7.53;3.97;;;12.40;99.90;;;;;;4958803;29;20031;-76
2021/03/15 09:38:59;;;;;;;7.43;3.40;;;12.00;99.90;;;;;;4961541;28;20445;-75
2021/03/15 09:41:26;;;;;;;6.93;3.80;;;12.20;99.90;;;;;;4973399;28;20545;-76
2021/03/15 09:43:52;;;;;;;5.45;3.20;;;12.60;99.90;;;;;;4958318;28;20050;-75
2021/03/15 09:46:29;;;;;;;4.63;3.08;;;12.80;99.90;;;;;;4957262;28;20030;-75
2021/03/15 09:48:54;;;;;;;4.55;2.90;;;12.80;99.90;;;;;;4958115;29;20045;-76
2021/03/15 09:51:27;;;;;;;6.10;3.72;;;13.00;99.90;;;;;;4962737;28;20094;-76
2021/03/15 09:53:54;;;;;;;5.63;3.90;;;12.40;99.90;;;;;;4978018;28;20557;-77
2021/03/15 09:56:22;;;;;;;7.65;4.47;;;12.80;99.90;;;;;;4974088;28;20099;-78
2021/03/15 09:58:48;;;;;;;5.07;3.53;;;13.50;99.90;;;;;;4963140;28;20393;-77
2021/03/15 10:01:18;;;;;;;5.35;3.40;;;13.90;99.90;;;;;;4966074;28;20035;-78
2021/03/15 10:04:02;;;;;;;4.20;3.00;;;13.60;99.90;;;;;;4969568;28;20035;-75
2021/03/15 10:06:28;;;;;;;3.88;2.83;;;13.80;99.90;;;;;;4977966;28;20059;-76
2021/03/15 10:08:55;;;;;;;4.97;2.60;;;13.90;99.10;;;;;;4977937;28;20113;-76
2021/03/15 10:11:22;;;;;;;4.25;2.70;;;12.90;99.90;;;;;;4974465;28;20020;-78
2021/03/15 10:14:02;;;;;;;3.92;2.60;;;12.80;99.90;;;;;;4958770;29;20162;-76
2021/03/15 10:16:28;;;;;;;4.75;3.00;;;13.30;99.90;;;;;;4958326;28;20393;-74
2021/03/15 10:18:53;;;;;;;4.38;2.83;;;13.60;99.90;;;;;;4958897;29;20481;-75
2021/03/15 10:21:26;;;;;;;3.97;3.00;;;13.90;99.90;;;;;;4956702;28;20122;-75
2021/03/15 10:23:52;;;;;;;4.03;2.65;;;13.90;99.90;;;;;;4955482;29;20567;-77
2021/03/15 10:26:18;;;;;;;5.07;3.20;;;14.00;99.90;;;;;;4958005;28;20019;-76
2021/03/15 10:28:48;;;;;;;6.28;2.80;;;14.10;99.20;;;;;;4974599;28;20030;-77
2021/03/15 10:31:14;;;;;;;7.13;3.00;;;14.20;99.30;;;;;;4974518;28;20033;-77
2021/03/15 10:33:51;;;;;;;5.32;2.70;;;14.00;99.70;;;;;;4974898;28;20035;-76
2021/03/15 10:36:22;;;;;;;3.83;2.60;;;14.30;99.30;;;;;;4974500;28;20037;-77
2021/03/15 10:38:48;;;;;;;4.03;2.50;;;14.50;98.80;;;;;;4974175;28;20495;-76
2021/03/15 10:41:15;;;;;;;3.25;2.50;;;14.20;99.30;;;;;;4957213;28;20385;-76
2021/03/15 10:43:45;;;;;;;4.90;2.70;;;14.00;99.90;;;;;;4964214;28;20093;-77
2021/03/15 10:46:26;;;;;;;;;;;13.70;99.90;;;;;;4974591;28;20023;-75
2021/03/15 10:48:52;;;;;;;3.80;2.53;;;13.40;99.90;;;;;;4974407;28;19965;-76
2021/03/15 10:51:18;;;;;;;5.82;3.45;;;13.50;99.90;;;;;;4971386;28;20111;-76
2021/03/15 10:53:49;;;;;;;3.65;2.50;;;13.60;99.90;;;;;;4973886;28;20496;-76
2021/03/15 10:56:21;;;;;;;;;;;13.40;99.90;;;;;;4954149;28;20467;-76
2021/03/15 10:58:48;;;;;;;3.28;2.50;;;12.70;99.90;;;;;;4954537;28;19906;-76
2021/03/15 11:01:23;;;;;;;4.18;2.75;;;12.40;99.90;;;;;;4954353;28;20051;-77
2021/03/15 11:03:49;;;;;;;4.30;2.55;;;12.80;99.90;;;;;;4968207;28;20038;-74
2021/03/15 11:06:19;;;;;;;3.45;2.60;;;13.10;99.90;;;;;;4973573;28;20078;-75
2021/03/15 11:08:57;;;;;;;3.88;2.55;;;13.20;99.90;;;;;;4964728;28;20035;-76
2021/03/15 11:11:25;;;;;;;3.33;2.50;;;12.70;99.90;;;;;;4957952;28;20019;-76
2021/03/15 11:13:54;;;;;;;4.60;2.92;;;12.20;99.90;;;;;;4965010;28;20038;-75
2021/03/15 11:16:29;;;;;;;5.15;2.63;;;12.70;99.90;;;;;;4936957;29;20027;-76
2021/03/15 11:19:04;;;;;;;3.97;2.63;;;13.10;99.90;;;;;;4955376;28;20031;-75
2021/03/15 11:21:38;;;;;;;3.78;2.60;;;13.40;99.90;;;;;;4954045;28;20106;-76
2021/03/15 11:24:05;;;;;;;5.22;2.50;;;13.20;99.90;;;;;;4953743;28;20050;-76
2021/03/15 11:26:48;;;;;;;6.25;2.25;;;13.20;99.90;;;;;;4952078;28;20125;-76
2021/03/15 11:29:15;;;;;;;3.78;2.50;;;12.50;99.90;;;;;;4954294;28;20041;-76
2021/03/15 11:31:49;;;;;;;3.70;2.47;;;12.90;99.90;;;;;;4956020;28;20020;-77
2021/03/15 11:34:23;;;;;;;4.30;2.33;;;13.20;99.90;;;;;;4956200;28;20500;-76
2021/03/15 11:36:50;;;;;;;3.67;2.60;;;12.40;99.90;;;;;;4953957;29;20039;-76
2021/03/15 11:39:16;;;;;;;5.10;2.67;;;12.40;99.90;;;;;;4962762;28;20027;-76
2021/03/15 11:41:44;;;;;;;3.38;2.50;;;12.90;99.90;;;;;;4959531;28;20023;-76
2021/03/15 11:44:10;;;;;;;6.43;3.58;;;13.10;99.60;;;;;;4955698;28;20137;-76
2021/03/15 11:46:36;;;;;;;5.40;3.30;;;12.60;99.90;;;;;;4972935;28;20109;-76
2021/03/15 11:49:03;;;;;;;6.00;3.25;;;12.70;99.90;;;;;;4973443;28;20054;-76
2021/03/15 11:51:29;;;;;;;5.22;3.10;;;12.90;99.90;;;;;;4966600;28;20089;-77
2021/03/15 11:53:54;;;;;;;6.55;3.70;;;13.30;99.60;;;;;;4953728;29;20448;-78
2021/03/15 11:56:21;;;;;;;7.57;3.97;;;13.30;99.70;;;;;;4956482;28;20015;-77
2021/03/15 11:58:47;;;;;;;6.88;4.07;;;13.10;99.90;;;;;;4972578;28;20019;-77
2021/03/15 12:01:13;;;;;;;8.65;5.32;;;13.20;99.90;;;;;;4972597;28;20098;-76
2021/03/15 12:03:38;;;;;;;8.80;4.78;;;13.20;99.90;;;;;;4972608;28;20125;-78
2021/03/15 12:06:05;;;;;;;6.00;4.15;;;12.80;99.90;;;;;;4972838;28;20035;-77
2021/03/15 12:08:31;;;;;;;7.55;5.53;;;12.20;99.90;;;;;;4972341;28;20130;-79
2021/03/15 12:10:57;;;;;;;8.52;5.60;;;12.00;99.90;;;;;;4971989;28;20027;-78
2021/03/15 12:13:25;;;;;;;10.60;5.65;;;11.10;99.90;;;;;;4952350;29;20027;-77
2021/03/15 12:15:52;;;;;;;16.60;6.25;;;10.80;99.90;;;;;;4936154;29;20354;-76
2021/03/15 12:18:18;;;;;;;12.43;5.45;;;10.80;99.90;;;;;;4953322;29;20154;-76
2021/03/15 12:20:44;;;;;;;6.90;4.80;;;11.20;99.90;;;;;;4952829;29;20118;-76
2021/03/15 12:23:10;;;;;;;6.85;4.03;;;11.60;99.90;;;;;;4953059;29;20167;-76
2021/03/15 12:25:39;;;;;;;4.97;3.50;;;11.70;99.90;;;;;;4960480;28;20101;-76
2021/03/15 12:28:06;;;;;;;6.72;4.13;;;11.80;99.90;;;;;;4960623;28;20124;-75
2021/03/15 12:30:32;;;;;;;5.00;3.15;;;11.40;99.90;;;;;;4971021;28;20050;-75
2021/03/15 12:32:58;;;;;;;4.07;2.90;;;11.30;99.90;;;;;;4969466;28;20035;-76
2021/03/15 12:35:25;;;;;;;3.70;2.72;;;10.80;99.90;;;;;;4955713;28;20045;-76
2021/03/15 12:37:51;;;;;;;6.10;4.05;;;11.20;99.90;;;;;;4971075;28;20386;-76
2021/03/15 12:40:18;;;;;;;7.30;4.47;;;10.80;99.90;;;;;;4962726;28;20397;-76
2021/03/15 12:42:44;;;;;;;6.03;4.07;;;10.30;99.90;;;;;;4952008;28;20039;-75
2021/03/15 12:45:10;;;;;;;4.82;3.80;;;9.70;99.90;;;;;;4959294;28;20062;-76
2021/03/15 12:47:36;;;;;;;4.70;3.97;;;9.30;99.90;;;;;;4971571;28;20041;-75
2021/03/15 12:50:03;;;;;;;8.07;4.20;;;9.20;99.90;;;;;;4971906;28;20019;-75
2021/03/15 12:52:29;;;;;;;9.68;4.95;;;9.40;99.90;;;;;;4957703;28;20023;-75